Terminal Aerodrome Forecast
Issued by NWS

Home | Current Version | Previous Version | Text Only | Print | Product List | Glossary On
Versions: 1 2 3 4 5 6 7 8 9 10 11 12 13 14 15 16 17 18 19 20 21 22 23 24 25 26 27 28 29 30
000
FTAK31 PANC 300007 AAA
TAFAGK
TAF AMD
PAGK 300007Z 3000/3024 VRB03KT 1 1/2SM -SN OVC025
      TEMPO 3000/3004 1/2SM SN VV014
     FM300900 VRB04KT 3SM -SN OVC035
     FM301800 34005KT P6SM SCT035 BKN070=

USA.gov is the U.S. government's official web portal to all federal, state and local government web resources and services.